sensor_id;sensor_type;location;lat;lon;timestamp;pressure;altitude;pressure_sealevel;temperature;humidity
58821;BME280;70670;52.476;13.334;2023-07-28T00:02:05;99698.41;;;15.31;100.00
58821;BME280;70670;52.476;13.334;2023-07-28T00:04:31;99693.88;;;15.32;100.00
58821;BME280;70670;52.476;13.334;2023-07-28T00:06:57;99695.72;;;15.31;100.00
58821;BME280;70670;52.476;13.334;2023-07-28T00:09:23;99692.19;;;15.31;100.00
58821;BME280;70670;52.476;13.334;2023-07-28T00:11:49;99689.34;;;15.32;100.00
58821;BME280;70670;52.476;13.334;2023-07-28T00:14:14;99678.84;;;15.29;100.00
58821;BME280;70670;52.476;13.334;2023-07-28T00:16:40;99682.13;;;15.33;100.00
58821;BME280;70670;52.476;13.334;2023-07-28T00:19:05;99660.22;;;15.16;100.00
58821;BME280;70670;52.476;13.334;2023-07-28T00:21:31;99682.13;;;15.33;100.00
58821;BME280;70670;52.476;13.334;2023-07-28T00:23:57;99665.78;;;15.34;100.00
58821;BME280;70670;52.476;13.334;2023-07-28T00:26:23;99672.31;;;15.32;100.00
58821;BME280;70670;52.476;13.334;2023-07-28T00:28:48;99623.78;;;15.12;100.00
58821;BME280;70670;52.476;13.334;2023-07-28T00:31:14;99668.34;;;15.36;100.00
58821;BME280;70670;52.476;13.334;2023-07-28T00:33:39;99656.72;;;15.35;100.00
58821;BME280;70670;52.476;13.334;2023-07-28T00:36:05;99670.06;;;15.37;100.00
58821;BME280;70670;52.476;13.334;2023-07-28T00:38:31;99644.25;;;15.24;100.00
58821;BME280;70670;52.476;13.334;2023-07-28T00:40:57;99660.13;;;15.37;100.00
58821;BME280;70670;52.476;13.334;2023-07-28T00:43:23;99662.97;;;15.45;100.00
58821;BME280;70670;52.476;13.334;2023-07-28T00:45:48;99659.69;;;15.42;100.00
58821;BME280;70670;52.476;13.334;2023-07-28T00:48:15;99668.38;;;15.45;100.00
58821;BME280;70670;52.476;13.334;2023-07-28T00:50:45;99668.66;;;15.52;100.00
58821;BME280;70670;52.476;13.334;2023-07-28T00:53:12;99630.91;;;15.33;100.00
58821;BME280;70670;52.476;13.334;2023-07-28T00:55:38;99654.59;;;15.48;100.00
58821;BME280;70670;52.476;13.334;2023-07-28T00:58:04;99665.53;;;15.57;100.00
58821;BME280;70670;52.476;13.334;2023-07-28T01:00:30;99658.97;;;15.59;100.00
58821;BME280;70670;52.476;13.334;2023-07-28T01:02:56;99648.19;;;15.59;100.00
58821;BME280;70670;52.476;13.334;2023-07-28T01:05:26;99653.31;;;15.62;100.00
58821;BME280;70670;52.476;13.334;2023-07-28T01:08:02;99612.72;;;15.35;100.00
58821;BME280;70670;52.476;13.334;2023-07-28T01:10:32;99601.09;;;15.34;100.00
58821;BME280;70670;52.476;13.334;2023-07-28T01:12:58;99650.75;;;15.61;100.00
58821;BME280;70670;52.476;13.334;2023-07-28T01:15:24;99653.06;;;15.65;100.00
58821;BME280;70670;52.476;13.334;2023-07-28T01:17:50;99647.50;;;15.67;100.00
58821;BME280;70670;52.476;13.334;2023-07-28T01:20:16;99640.41;;;15.66;100.00
58821;BME280;70670;52.476;13.334;2023-07-28T01:28:22;99642.69;;;15.70;100.00
58821;BME280;70670;52.476;13.334;2023-07-28T01:30:48;99642.00;;;15.68;100.00
58821;BME280;70670;52.476;13.334;2023-07-28T01:33:14;99632.06;;;15.69;100.00
58821;BME280;70670;52.476;13.334;2023-07-28T01:35:40;99619.53;;;15.58;100.00
58821;BME280;70670;52.476;13.334;2023-07-28T01:38:05;99641.00;;;15.69;100.00
58821;BME280;70670;52.476;13.334;2023-07-28T01:40:31;99636.59;;;15.68;100.00
58821;BME280;70670;52.476;13.334;2023-07-28T01:42:57;99619.53;;;15.58;100.00
58821;BME280;70670;52.476;13.334;2023-07-28T01:45:23;99634.88;;;15.67;100.00
58821;BME280;70670;52.476;13.334;2023-07-28T01:47:49;99643.69;;;15.69;100.00
58821;BME280;70670;52.476;13.334;2023-07-28T01:50:14;99633.91;;;15.68;100.00
58821;BME280;70670;52.476;13.334;2023-07-28T01:52:40;99638.84;;;15.73;100.00
58821;BME280;70670;52.476;13.334;2023-07-28T01:55:06;99636.72;;;15.67;100.00
58821;BME280;70670;52.476;13.334;2023-07-28T01:57:38;99576.69;;;15.36;100.00
58821;BME280;70670;52.476;13.334;2023-07-28T02:00:05;99638.84;;;15.73;100.00
58821;BME280;70670;52.476;13.334;2023-07-28T02:02:30;99635.16;;;15.74;100.00
58821;BME280;70670;52.476;13.334;2023-07-28T02:04:56;99631.91;;;15.70;100.00
58821;BME280;70670;52.476;13.334;2023-07-28T02:07:22;99633.47;;;15.73;100.00
58821;BME280;70670;52.476;13.334;2023-07-28T02:09:47;99581.50;;;15.42;100.00
58821;BME280;70670;52.476;13.334;2023-07-28T02:12:13;99635.72;;;15.78;100.00
58821;BME280;70670;52.476;13.334;2023-07-28T02:14:39;99632.31;;;15.76;100.00
58821;BME280;70670;52.476;13.334;2023-07-28T02:17:04;99629.88;;;15.82;100.00
58821;BME280;70670;52.476;13.334;2023-07-28T02:19:30;99639.56;;;15.85;100.00
58821;BME280;70670;52.476;13.334;2023-07-28T02:21:56;99581.94;;;15.57;100.00
58821;BME280;70670;52.476;13.334;2023-07-28T02:24:22;99633.16;;;15.86;100.00
58821;BME280;70670;52.476;13.334;2023-07-28T02:26:47;99618.41;;;15.80;100.00
58821;BME280;70670;52.476;13.334;2023-07-28T02:29:13;99631.88;;;15.90;100.00
58821;BME280;70670;52.476;13.334;2023-07-28T02:31:38;99634.28;;;15.93;100.00
58821;BME280;70670;52.476;13.334;2023-07-28T02:34:04;99630.56;;;15.94;100.00
58821;BME280;70670;52.476;13.334;2023-07-28T02:36:31;99626.88;;;15.95;100.00
58821;BME280;70670;52.476;13.334;2023-07-28T02:38:56;99576.69;;;15.65;100.00
58821;BME280;70670;52.476;13.334;2023-07-28T02:41:22;99619.78;;;15.94;100.00
58821;BME280;70670;52.476;13.334;2023-07-28T02:43:48;99561.88;;;15.59;100.00
58821;BME280;70670;52.476;13.334;2023-07-28T02:46:13;99623.19;;;15.96;100.00
58821;BME280;70670;52.476;13.334;2023-07-28T02:48:39;99621.47;;;15.95;100.00
58821;BME280;70670;52.476;13.334;2023-07-28T02:51:04;99616.06;;;15.95;100.00
58821;BME280;70670;52.476;13.334;2023-07-28T02:53:30;99570.13;;;15.67;100.00
58821;BME280;70670;52.476;13.334;2023-07-28T02:55:56;99610.41;;;15.98;100.00
58821;BME280;70670;52.476;13.334;2023-07-28T02:58:22;99613.81;;;16.00;100.00
58821;BME280;70670;52.476;13.334;2023-07-28T03:00:47;99605.88;;;15.89;100.00
58821;BME280;70670;52.476;13.334;2023-07-28T03:03:13;99613.38;;;15.95;100.00
58821;BME280;70670;52.476;13.334;2023-07-28T03:05:39;99621.19;;;15.98;100.00
58821;BME280;70670;52.476;13.334;2023-07-28T03:08:06;99624.59;;;16.00;100.00
58821;BME280;70670;52.476;13.334;2023-07-28T03:10:32;99630.00;;;16.00;100.00
58821;BME280;70670;52.476;13.334;2023-07-28T03:12:58;99624.59;;;16.00;100.00
58821;BME280;70670;52.476;13.334;2023-07-28T03:15:23;99632.53;;;16.02;100.00
58821;BME280;70670;52.476;13.334;2023-07-28T03:17:50;99606.72;;;15.89;100.00
58821;BME280;70670;52.476;13.334;2023-07-28T03:20:15;99626.31;;;16.01;100.00
58821;BME280;70670;52.476;13.334;2023-07-28T03:22:41;99637.09;;;16.01;100.00
58821;BME280;70670;52.476;13.334;2023-07-28T03:25:07;99638.09;;;16.00;100.00
58821;BME280;70670;52.476;13.334;2023-07-28T03:27:33;99642.50;;;16.01;100.00
58821;BME280;70670;52.476;13.334;2023-07-28T03:29:59;99584.06;;;15.72;100.00
58821;BME280;70670;52.476;13.334;2023-07-28T03:32:25;99646.03;;;16.02;100.00
58821;BME280;70670;52.476;13.334;2023-07-28T03:34:50;99652.28;;;16.02;100.00
58821;BME280;70670;52.476;13.334;2023-07-28T03:37:17;99647.59;;;16.04;100.00
58821;BME280;70670;52.476;13.334;2023-07-28T03:39:43;99653.97;;;16.03;100.00
58821;BME280;70670;52.476;13.334;2023-07-28T03:42:09;99640.66;;;16.02;100.00
58821;BME280;70670;52.476;13.334;2023-07-28T03:44:34;99636.25;;;15.91;100.00
58821;BME280;70670;52.476;13.334;2023-07-28T03:47:03;99648.75;;;16.02;100.00
58821;BME280;70670;52.476;13.334;2023-07-28T03:49:29;99651.28;;;16.03;100.00
58821;BME280;70670;52.476;13.334;2023-07-28T03:51:55;99634.84;;;15.96;100.00
58821;BME280;70670;52.476;13.334;2023-07-28T03:54:20;99644.63;;;15.97;100.00
58821;BME280;70670;52.476;13.334;2023-07-28T03:56:46;99651.00;;;16.06;100.00
58821;BME280;70670;52.476;13.334;2023-07-28T03:59:12;99654.41;;;16.08;100.00
58821;BME280;70670;52.476;13.334;2023-07-28T04:01:37;99668.03;;;16.07;100.00
58821;BME280;70670;52.476;13.334;2023-07-28T04:04:03;99656.41;;;16.06;100.00
58821;BME280;70670;52.476;13.334;2023-07-28T04:06:46;99656.41;;;16.06;100.00
58821;BME280;70670;52.476;13.334;2023-07-28T04:09:14;99661.66;;;16.08;100.00
58821;BME280;70670;52.476;13.334;2023-07-28T04:11:40;99659.81;;;16.08;100.00
58821;BME280;70670;52.476;13.334;2023-07-28T04:14:06;99663.47;;;16.07;100.00
58821;BME280;70670;52.476;13.334;2023-07-28T04:16:32;99620.66;;;15.85;100.00
58821;BME280;70670;52.476;13.334;2023-07-28T04:18:58;99663.47;;;16.07;100.00
58821;BME280;70670;52.476;13.334;2023-07-28T04:21:23;99670.28;;;16.11;100.00
58821;BME280;70670;52.476;13.334;2023-07-28T04:23:49;99669.16;;;16.14;100.00
58821;BME280;70670;52.476;13.334;2023-07-28T04:26:16;99679.13;;;16.13;100.00
58821;BME280;70670;52.476;13.334;2023-07-28T04:28:42;99668.59;;;16.20;100.00
58821;BME280;70670;52.476;13.334;2023-07-28T04:31:08;99617.38;;;15.91;100.00
58821;BME280;70670;52.476;13.334;2023-07-28T04:33:33;99615.78;;;15.98;100.00
58821;BME280;70670;52.476;13.334;2023-07-28T04:36:02;99617.50;;;15.99;100.00
58821;BME280;70670;52.476;13.334;2023-07-28T04:38:27;99637.91;;;16.11;100.00
58821;BME280;70670;52.476;13.334;2023-07-28T04:40:53;99627.16;;;16.02;100.00
58821;BME280;70670;52.476;13.334;2023-07-28T04:43:19;99657.47;;;16.23;100.00
58821;BME280;70670;52.476;13.334;2023-07-28T04:45:45;99651.22;;;16.22;100.00
58821;BME280;70670;52.476;13.334;2023-07-28T04:48:10;99655.22;;;16.18;100.00
58821;BME280;70670;52.476;13.334;2023-07-28T04:50:37;99667.16;;;16.26;100.00
58821;BME280;70670;52.476;13.334;2023-07-28T04:53:03;99649.97;;;16.17;100.00
58821;BME280;70670;52.476;13.334;2023-07-28T04:55:28;99653.25;;;16.20;100.00
58821;BME280;70670;52.476;13.334;2023-07-28T04:57:55;99653.94;;;16.22;100.00
58821;BME280;70670;52.476;13.334;2023-07-28T05:00:21;99658.34;;;16.23;100.00
58821;BME280;70670;52.476;13.334;2023-07-28T05:02:46;99674.66;;;16.32;100.00
58821;BME280;70670;52.476;13.334;2023-07-28T05:05:12;99668.72;;;16.28;100.00
58821;BME280;70670;52.476;13.334;2023-07-28T05:07:38;99670.56;;;16.28;100.00
58821;BME280;70670;52.476;13.334;2023-07-28T05:10:04;99675.97;;;16.28;100.00
58821;BME280;70670;52.476;13.334;2023-07-28T05:12:29;99670.97;;;16.23;100.00
58821;BME280;70670;52.476;13.334;2023-07-28T05:14:55;99675.09;;;16.27;100.00
58821;BME280;70670;52.476;13.334;2023-07-28T05:17:20;99663.75;;;16.23;100.00
58821;BME280;70670;52.476;13.334;2023-07-28T05:19:46;99674.13;;;16.28;100.00
58821;BME280;70670;52.476;13.334;2023-07-28T05:22:12;99679.34;;;16.30;100.00
58821;BME280;70670;52.476;13.334;2023-07-28T05:24:37;99678.34;;;16.31;100.00
58821;BME280;70670;52.476;13.334;2023-07-28T05:27:03;99681.91;;;16.31;100.00
58821;BME280;70670;52.476;13.334;2023-07-28T05:29:29;99686.16;;;16.34;100.00
58821;BME280;70670;52.476;13.334;2023-07-28T05:31:54;99682.44;;;16.35;100.00
58821;BME280;70670;52.476;13.334;2023-07-28T05:34:20;99692.69;;;16.41;100.00
58821;BME280;70670;52.476;13.334;2023-07-28T05:36:46;99696.06;;;16.43;100.00
58821;BME280;70670;52.476;13.334;2023-07-28T05:39:11;99685.28;;;16.43;100.00
58821;BME280;70670;52.476;13.334;2023-07-28T05:41:37;99669.41;;;16.30;100.00
58821;BME280;70670;52.476;13.334;2023-07-28T05:44:03;99693.38;;;16.43;100.00
58821;BME280;70670;52.476;13.334;2023-07-28T05:46:29;99687.84;;;16.44;100.00
58821;BME280;70670;52.476;13.334;2023-07-28T05:48:55;99652.81;;;16.15;100.00
58821;BME280;70670;52.476;13.334;2023-07-28T05:51:21;99694.09;;;16.45;100.00
58821;BME280;70670;52.476;13.334;2023-07-28T05:53:47;99707.44;;;16.46;100.00
58821;BME280;70670;52.476;13.334;2023-07-28T05:56:13;99675.91;;;16.37;100.00
58821;BME280;70670;52.476;13.334;2023-07-28T05:58:39;99653.25;;;16.20;100.00
58821;BME280;70670;52.476;13.334;2023-07-28T06:01:04;99697.19;;;16.50;100.00
58821;BME280;70670;52.476;13.334;2023-07-28T06:03:30;99698.19;;;16.49;100.00
58821;BME280;70670;52.476;13.334;2023-07-28T06:05:56;99664.03;;;16.20;100.00
58821;BME280;70670;52.476;13.334;2023-07-28T06:08:22;99710.84;;;16.48;100.00
58821;BME280;70670;52.476;13.334;2023-07-28T06:10:48;99709.00;;;16.49;100.00
58821;BME280;70670;52.476;13.334;2023-07-28T06:13:13;99716.09;;;16.50;100.00
58821;BME280;70670;52.476;13.334;2023-07-28T06:15:39;99718.66;;;16.52;100.00
58821;BME280;70670;52.476;13.334;2023-07-28T06:18:05;99728.47;;;16.53;100.00
58821;BME280;70670;52.476;13.334;2023-07-28T06:20:31;99731.00;;;16.54;100.00
58821;BME280;70670;52.476;13.334;2023-07-28T06:22:57;99730.03;;;16.55;100.00
58821;BME280;70670;52.476;13.334;2023-07-28T06:25:22;99735.28;;;16.57;100.00
58821;BME280;70670;52.476;13.334;2023-07-28T06:27:48;99704.06;;;16.35;100.00
58821;BME280;70670;52.476;13.334;2023-07-28T06:30:13;99741.78;;;16.64;100.00
58821;BME280;70670;52.476;13.334;2023-07-28T06:32:39;99733.25;;;16.59;100.00
58821;BME280;70670;52.476;13.334;2023-07-28T06:35:05;99752.00;;;16.70;100.00
58821;BME280;70670;52.476;13.334;2023-07-28T06:37:33;99734.72;;;16.53;100.00
58821;BME280;70670;52.476;13.334;2023-07-28T06:39:59;99761.81;;;16.81;100.00
58821;BME280;70670;52.476;13.334;2023-07-28T06:42:24;99750.59;;;16.76;100.00
58821;BME280;70670;52.476;13.334;2023-07-28T06:44:51;99759.13;;;16.81;100.00
58821;BME280;70670;52.476;13.334;2023-07-28T06:47:17;99757.25;;;16.81;100.00
58821;BME280;70670;52.476;13.334;2023-07-28T06:49:43;99768.63;;;16.85;100.00
58821;BME280;70670;52.476;13.334;2023-07-28T06:52:09;99755.97;;;16.85;100.00
58821;BME280;70670;52.476;13.334;2023-07-28T06:54:34;99741.19;;;16.70;100.00
58821;BME280;70670;52.476;13.334;2023-07-28T06:57:00;99748.00;;;16.84;100.00
58821;BME280;70670;52.476;13.334;2023-07-28T06:59:26;99768.56;;;16.94;100.00
58821;BME280;70670;52.476;13.334;2023-07-28T07:01:52;99765.75;;;16.96;100.00
58821;BME280;70670;52.476;13.334;2023-07-28T07:04:18;99760.03;;;16.99;100.00
58821;BME280;70670;52.476;13.334;2023-07-28T07:06:44;99771.53;;;17.01;100.00
58821;BME280;70670;52.476;13.334;2023-07-28T07:09:10;99765.69;;;17.06;100.00
58821;BME280;70670;52.476;13.334;2023-07-28T07:11:40;99769.78;;;17.10;100.00
58821;BME280;70670;52.476;13.334;2023-07-28T07:14:06;99755.72;;;17.06;100.00
58821;BME280;70670;52.476;13.334;2023-07-28T07:16:32;99767.50;;;17.15;100.00
58821;BME280;70670;52.476;13.334;2023-07-28T07:18:57;99789.69;;;17.18;100.00
58821;BME280;70670;52.476;13.334;2023-07-28T07:21:23;99778.00;;;17.18;100.00
58821;BME280;70670;52.476;13.334;2023-07-28T07:23:49;99771.84;;;17.26;100.00
58821;BME280;70670;52.476;13.334;2023-07-28T07:26:15;99782.75;;;17.34;100.00
58821;BME280;70670;52.476;13.334;2023-07-28T07:28:40;99781.88;;;17.43;100.00
58821;BME280;70670;52.476;13.334;2023-07-28T07:31:13;99768.72;;;17.48;100.00
58821;BME280;70670;52.476;13.334;2023-07-28T07:33:39;99730.97;;;17.29;100.00
58821;BME280;70670;52.476;13.334;2023-07-28T07:36:05;99778.88;;;17.64;100.00
58821;BME280;70670;52.476;13.334;2023-07-28T07:38:30;99790.19;;;17.77;99.71
58821;BME280;70670;52.476;13.334;2023-07-28T07:40:56;99744.63;;;17.55;99.10
58821;BME280;70670;52.476;13.334;2023-07-28T07:43:21;99787.81;;;17.92;98.83
58821;BME280;70670;52.476;13.334;2023-07-28T07:45:47;99770.91;;;17.90;98.00
58821;BME280;70670;52.476;13.334;2023-07-28T07:48:15;99787.41;;;18.05;97.67
58821;BME280;70670;52.476;13.334;2023-07-28T07:50:41;99787.41;;;18.05;95.67
58821;BME280;70670;52.476;13.334;2023-07-28T07:53:06;99793.31;;;18.18;94.12
58821;BME280;70670;52.476;13.334;2023-07-28T07:55:32;99795.56;;;18.23;95.63
58821;BME280;70670;52.476;13.334;2023-07-28T07:57:58;99800.03;;;18.32;93.31
58821;BME280;70670;52.476;13.334;2023-07-28T08:00:23;99794.28;;;18.35;94.10
58821;BME280;70670;52.476;13.334;2023-07-28T08:02:49;99790.25;;;18.39;93.10
58821;BME280;70670;52.476;13.334;2023-07-28T08:05:15;99811.94;;;18.39;92.46
58821;BME280;70670;52.476;13.334;2023-07-28T08:07:41;99748.97;;;18.01;92.58
58821;BME280;70670;52.476;13.334;2023-07-28T08:10:07;99736.16;;;18.03;91.69
58821;BME280;70670;52.476;13.334;2023-07-28T08:12:33;99798.44;;;18.47;92.40
58821;BME280;70670;52.476;13.334;2023-07-28T08:14:59;99792.06;;;18.56;91.45
58821;BME280;70670;52.476;13.334;2023-07-28T08:17:24;99809.50;;;18.72;92.07
58821;BME280;70670;52.476;13.334;2023-07-28T08:19:50;99814.59;;;18.75;91.31
58821;BME280;70670;52.476;13.334;2023-07-28T08:22:16;99767.09;;;18.44;89.69
58821;BME280;70670;52.476;13.334;2023-07-28T08:24:41;99759.13;;;18.43;89.19
58821;BME280;70670;52.476;13.334;2023-07-28T08:27:07;99820.03;;;18.75;90.11
58821;BME280;70670;52.476;13.334;2023-07-28T08:29:33;99819.31;;;18.73;90.02
58821;BME280;70670;52.476;13.334;2023-07-28T08:31:59;99819.31;;;18.73;91.02
58821;BME280;70670;52.476;13.334;2023-07-28T08:34:25;99829.00;;;18.75;91.09
58821;BME280;70670;52.476;13.334;2023-07-28T08:36:50;99818.88;;;18.77;90.56
58821;BME280;70670;52.476;13.334;2023-07-28T08:39:17;99826.81;;;18.79;91.64
58821;BME280;70670;52.476;13.334;2023-07-28T08:41:43;99824.44;;;18.76;91.15
58821;BME280;70670;52.476;13.334;2023-07-28T08:44:09;99813.91;;;18.73;89.44
58821;BME280;70670;52.476;13.334;2023-07-28T08:46:34;99828.56;;;18.88;89.82
58821;BME280;70670;52.476;13.334;2023-07-28T08:49:01;99823.91;;;18.98;88.97
58821;BME280;70670;52.476;13.334;2023-07-28T08:51:27;99831.75;;;19.09;89.83
58821;BME280;70670;52.476;13.334;2023-07-28T08:53:52;99791.91;;;18.76;90.42
58821;BME280;70670;52.476;13.334;2023-07-28T08:56:18;99828.75;;;18.86;93.63
58821;BME280;70670;52.476;13.334;2023-07-28T08:58:44;99844.94;;;18.78;94.19
58821;BME280;70670;52.476;13.334;2023-07-28T09:01:10;99781.06;;;18.32;93.89
58821;BME280;70670;52.476;13.334;2023-07-28T09:03:39;99838.00;;;18.58;93.71
58821;BME280;70670;52.476;13.334;2023-07-28T09:06:06;99844.63;;;18.63;93.96
58821;BME280;70670;52.476;13.334;2023-07-28T09:08:35;99830.53;;;18.60;93.31
58821;BME280;70670;52.476;13.334;2023-07-28T09:11:03;99847.88;;;18.85;92.67
58821;BME280;70670;52.476;13.334;2023-07-28T09:13:40;99877.28;;;18.98;91.29
58821;BME280;70670;52.476;13.334;2023-07-28T09:16:16;99853.69;;;18.90;91.79
58821;BME280;70670;52.476;13.334;2023-07-28T09:18:43;99847.81;;;18.77;92.87
58821;BME280;70670;52.476;13.334;2023-07-28T09:21:16;99847.03;;;18.66;94.48
58821;BME280;70670;52.476;13.334;2023-07-28T09:23:43;99872.69;;;18.72;95.03
58821;BME280;70670;52.476;13.334;2023-07-28T09:26:09;99867.88;;;18.66;94.82
58821;BME280;70670;52.476;13.334;2023-07-28T09:28:36;99781.09;;;17.96;94.19
58821;BME280;70670;52.476;13.334;2023-07-28T09:31:04;99866.03;;;18.49;94.32
58821;BME280;70670;52.476;13.334;2023-07-28T09:33:31;99866.00;;;18.66;93.49
58821;BME280;70670;52.476;13.334;2023-07-28T09:36:07;99876.69;;;18.86;92.70
58821;BME280;70670;52.476;13.334;2023-07-28T09:38:36;99883.56;;;18.98;91.89
58821;BME280;70670;52.476;13.334;2023-07-28T09:41:03;99874.41;;;18.99;91.64
58821;BME280;70670;52.476;13.334;2023-07-28T09:43:32;99874.19;;;19.19;90.96
58821;BME280;70670;52.476;13.334;2023-07-28T09:45:57;99887.47;;;19.30;89.42
58821;BME280;70670;52.476;13.334;2023-07-28T09:48:24;99844.09;;;19.04;89.08
58821;BME280;70670;52.476;13.334;2023-07-28T09:50:49;99882.38;;;19.27;89.10
58821;BME280;70670;52.476;13.334;2023-07-28T09:53:16;99884.06;;;19.28;88.66
58821;BME280;70670;52.476;13.334;2023-07-28T09:55:42;99879.13;;;19.23;88.10
58821;BME280;70670;52.476;13.334;2023-07-28T09:58:11;99885.69;;;19.12;89.12
58821;BME280;70670;52.476;13.334;2023-07-28T10:00:37;99879.38;;;19.12;89.55
58821;BME280;70670;52.476;13.334;2023-07-28T10:03:04;99886.72;;;19.20;88.48
58821;BME280;70670;52.476;13.334;2023-07-28T10:05:31;99877.44;;;19.22;88.67
58821;BME280;70670;52.476;13.334;2023-07-28T10:07:57;99879.75;;;19.43;89.25
58821;BME280;70670;52.476;13.334;2023-07-28T10:10:23;99854.34;;;19.52;87.64
58821;BME280;70670;52.476;13.334;2023-07-28T10:12:50;99821.13;;;19.24;86.80
58821;BME280;70670;52.476;13.334;2023-07-28T10:15:18;99886.44;;;19.57;86.02
58821;BME280;70670;52.476;13.334;2023-07-28T10:17:53;99860.47;;;19.54;86.44
58821;BME280;70670;52.476;13.334;2023-07-28T10:20:46;99853.41;;;19.61;85.05
58821;BME280;70670;52.476;13.334;2023-07-28T10:23:16;99869.09;;;19.84;84.07
58821;BME280;70670;52.476;13.334;2023-07-28T10:25:44;99826.50;;;19.42;85.21
58821;BME280;70670;52.476;13.334;2023-07-28T10:28:26;99827.31;;;19.08;90.85
58821;BME280;70670;52.476;13.334;2023-07-28T10:30:54;99891.31;;;18.93;93.65
58821;BME280;70670;52.476;13.334;2023-07-28T10:33:37;99906.75;;;18.75;96.61
58821;BME280;70670;52.476;13.334;2023-07-28T10:36:15;99913.25;;;18.82;98.36
58821;BME280;70670;52.476;13.334;2023-07-28T10:38:42;99889.53;;;18.84;97.61
58821;BME280;70670;52.476;13.334;2023-07-28T10:41:14;99906.75;;;19.19;97.76
58821;BME280;70670;52.476;13.334;2023-07-28T10:43:41;99892.25;;;19.36;95.92
58821;BME280;70670;52.476;13.334;2023-07-28T10:46:09;99905.13;;;19.60;97.50
58821;BME280;70670;52.476;13.334;2023-07-28T10:48:36;99888.84;;;19.60;92.54
58821;BME280;70670;52.476;13.334;2023-07-28T10:51:02;99893.78;;;19.64;89.34
58821;BME280;70670;52.476;13.334;2023-07-28T10:53:28;99899.31;;;19.89;91.90
58821;BME280;70670;52.476;13.334;2023-07-28T10:55:54;99892.56;;;20.01;87.82
58821;BME280;70670;52.476;13.334;2023-07-28T10:58:19;99890.22;;;20.23;86.79
58821;BME280;70670;52.476;13.334;2023-07-28T11:00:45;99895.34;;;20.42;85.64
58821;BME280;70670;52.476;13.334;2023-07-28T11:03:12;99843.69;;;20.18;84.92
58821;BME280;70670;52.476;13.334;2023-07-28T11:05:37;99833.16;;;20.31;83.59
58821;BME280;70670;52.476;13.334;2023-07-28T11:08:03;99895.75;;;20.72;83.11
58821;BME280;70670;52.476;13.334;2023-07-28T11:10:32;99903.91;;;20.72;80.71
58821;BME280;70670;52.476;13.334;2023-07-28T11:13:02;99901.50;;;20.52;81.14
58821;BME280;70670;52.476;13.334;2023-07-28T11:15:28;99905.09;;;20.61;82.15
58821;BME280;70670;52.476;13.334;2023-07-28T11:17:55;99877.38;;;20.57;82.62
58821;BME280;70670;52.476;13.334;2023-07-28T11:20:26;99905.94;;;20.70;82.36
58821;BME280;70670;52.476;13.334;2023-07-28T11:22:53;99899.47;;;20.54;84.16
58821;BME280;70670;52.476;13.334;2023-07-28T11:25:20;99904.28;;;20.02;88.12
58821;BME280;70670;52.476;13.334;2023-07-28T11:27:47;99926.13;;;19.84;90.88
58821;BME280;70670;52.476;13.334;2023-07-28T11:30:13;99943.31;;;19.14;96.04
58821;BME280;70670;52.476;13.334;2023-07-28T11:32:42;99919.38;;;18.84;98.96
58821;BME280;70670;52.476;13.334;2023-07-28T11:35:10;99930.34;;;18.64;100.00
58821;BME280;70670;52.476;13.334;2023-07-28T11:37:36;99897.13;;;18.44;100.00
58821;BME280;70670;52.476;13.334;2023-07-28T11:40:05;99936.66;;;18.65;100.00
58821;BME280;70670;52.476;13.334;2023-07-28T11:42:47;99938.09;;;18.59;100.00
58821;BME280;70670;52.476;13.334;2023-07-28T11:45:15;99935.19;;;18.71;100.00
58821;BME280;70670;52.476;13.334;2023-07-28T11:47:52;99941.38;;;18.81;100.00
58821;BME280;70670;52.476;13.334;2023-07-28T11:50:25;99937.25;;;18.77;100.00
58821;BME280;70670;52.476;13.334;2023-07-28T11:52:51;99946.03;;;18.71;100.00
58821;BME280;70670;52.476;13.334;2023-07-28T11:55:18;99905.59;;;18.59;100.00
58821;BME280;70670;52.476;13.334;2023-07-28T11:57:44;99953.28;;;19.06;100.00
58821;BME280;70670;52.476;13.334;2023-07-28T12:00:10;99908.50;;;19.02;100.00
58821;BME280;70670;52.476;13.334;2023-07-28T12:02:38;99952.97;;;19.35;100.00
58821;BME280;70670;52.476;13.334;2023-07-28T12:05:14;99955.03;;;19.41;100.00
58821;BME280;70670;52.476;13.334;2023-07-28T12:07:40;99951.94;;;19.36;100.00
58821;BME280;70670;52.476;13.334;2023-07-28T12:10:07;99966.44;;;19.45;100.00
58821;BME280;70670;52.476;13.334;2023-07-28T12:12:43;99959.63;;;19.40;100.00
58821;BME280;70670;52.476;13.334;2023-07-28T12:15:26;99956.19;;;19.38;98.87
58821;BME280;70670;52.476;13.334;2023-07-28T12:20:38;99964.41;;;19.73;94.99
58821;BME280;70670;52.476;13.334;2023-07-28T12:23:06;99963.44;;;19.82;96.71
58821;BME280;70670;52.476;13.334;2023-07-28T12:25:32;99971.22;;;19.77;93.36
58821;BME280;70670;52.476;13.334;2023-07-28T12:27:58;99969.09;;;19.62;94.11
58821;BME280;70670;52.476;13.334;2023-07-28T12:30:24;99977.47;;;19.51;93.50
58821;BME280;70670;52.476;13.334;2023-07-28T12:32:50;99984.50;;;19.36;93.98
58821;BME280;70670;52.476;13.334;2023-07-28T12:35:15;99965.81;;;19.07;95.72
58821;BME280;70670;52.476;13.334;2023-07-28T12:37:41;99993.66;;;19.35;94.63
58821;BME280;70670;52.476;13.334;2023-07-28T12:40:07;100006.47;;;19.51;95.41
58821;BME280;70670;52.476;13.334;2023-07-28T12:42:34;100004.44;;;19.45;94.76
58821;BME280;70670;52.476;13.334;2023-07-28T12:44:59;99983.00;;;19.15;94.62
58821;BME280;70670;52.476;13.334;2023-07-28T12:47:25;100010.66;;;19.37;96.67
58821;BME280;70670;52.476;13.334;2023-07-28T12:49:51;100017.28;;;19.42;95.10